Portada
METAR-TAF:

METAR-TAF

Aeropuertos :

Joliet Regional Airport

Joliet, Illinois, Estados Unidos

latitud: 41-31-05N, longitud: 088-10-31W, altitud: 177 m

Observación

El informe se hizo hace 20 minutos, a las 19:55 UTC
Viento 5 kt del suroeste
Temperatura 33°C
Humedad 46%
Presión 1022 hPa
Visibilidad: 16.1 km
Nubes dispersas a una altura de 5500 ft
Nubes dispersas a una altura de 7000 ft
Cielo nuboso a una altura de 9000 ft

METAR: KJOT 191955Z AUTO 23005KT 10SM SCT055 SCT070 BKN090 33/20 A3019 RMK AO2 T03280197

Hora: 15:15 (20:15 UTC)


TAF: falta

Observaciones y pronósticos meteorológicos de más de 4000 aeropuertos (mensajes METAR y TAF).

Los puntos amarillos y rojos representan las estaciones disponibles.

Ponga el ratón en el punto deseado para ver el nombre de la estación.

Haga clic para ver las observaciones y los pronósticos meteorológicos.

Para cambiar el mapa : haga clic en los botones verdes con una cruz de color negro para hacer un zoom, en el botón verde con un guión para alejar o en las flechas verdes para mapas adyacentes.


METAR-TAF: